createdAt,value
2019-05-30T00:05:44.841Z,92.27
2019-05-30T00:12:03.067Z,92.72
2019-05-30T00:18:32.758Z,94.23
2019-05-30T00:24:49.726Z,94.52
2019-05-30T00:34:55.556Z,93.68
2019-05-30T00:41:12.383Z,93.79
2019-05-30T00:47:29.365Z,95.04
2019-05-30T00:53:59.000Z,95.50
2019-05-30T01:00:17.634Z,94.81
2019-05-30T01:06:35.013Z,93.57
2019-05-30T01:12:52.868Z,94.59
2019-05-30T01:19:22.125Z,94.83
2019-05-30T01:25:39.017Z,96.57
2019-05-30T01:35:43.023Z,95.26
2019-05-30T01:42:01.848Z,95.82
2019-05-30T01:48:19.624Z,94.77
2019-05-30T01:54:51.319Z,94.35
2019-05-30T02:01:22.640Z,94.67
2019-05-30T02:07:27.047Z,96.37
2019-05-30T02:13:44.019Z,95.43
2019-05-30T02:20:14.485Z,96.08
2019-05-30T02:26:31.611Z,95.27
2019-05-30T02:36:36.018Z,96.01
2019-05-30T02:42:53.616Z,97.19
2019-05-30T02:49:13.094Z,96.09
2019-05-30T02:55:42.878Z,96.75
2019-05-30T03:02:04.357Z,96.59
2019-05-30T03:08:20.736Z,98.26
2019-05-30T03:14:38.149Z,97.92
2019-05-30T03:21:08.569Z,97.39
2019-05-30T03:27:27.441Z,97.29
2019-05-30T03:37:31.598Z,96.46
2019-05-30T03:43:48.718Z,96.27
2019-05-30T03:50:09.046Z,96.08
2019-05-30T03:56:44.481Z,96.58
2019-05-30T04:03:15.672Z,98.34
2019-05-30T04:09:36.666Z,98.14
2019-05-30T04:15:54.700Z,98.06
2019-05-30T04:22:24.169Z,97.09
2019-05-30T04:28:41.453Z,96.91
2019-05-30T04:38:45.611Z,96.53
2019-05-30T04:45:02.445Z,97.51
2019-05-30T04:51:21.765Z,96.47
2019-05-30T04:57:52.649Z,95.49
2019-05-30T05:04:11.450Z,95.70
2019-05-30T05:10:29.179Z,96.08
2019-05-30T05:16:46.031Z,95.49
2019-05-30T05:23:17.271Z,95.12
2019-05-30T05:29:37.291Z,94.61
2019-05-30T05:39:41.771Z,95.21
2019-05-30T05:45:59.223Z,94.33
2019-05-30T05:52:18.710Z,94.03
2019-05-30T05:58:48.358Z,93.89
2019-05-30T06:05:06.162Z,94.11
2019-05-30T06:11:24.643Z,93.97
2019-05-30T06:17:41.940Z,93.75
2019-05-30T06:24:11.249Z,93.87
2019-05-30T06:30:28.819Z,94.00
2019-05-30T06:40:35.618Z,93.47
2019-05-30T06:46:53.096Z,93.40
2019-05-30T06:53:10.593Z,93.03
2019-05-30T06:59:40.011Z,93.16
2019-05-30T07:05:57.523Z,93.71
2019-05-30T07:12:14.881Z,93.32
2019-05-30T07:18:36.285Z,93.14
2019-05-30T07:25:06.706Z,92.67
2019-05-30T07:31:24.102Z,92.96
2019-05-30T07:41:28.623Z,90.95
2019-05-30T07:47:46.314Z,89.58
2019-05-30T07:54:16.526Z,88.36
2019-05-30T08:00:34.102Z,87.12
2019-05-30T08:06:51.540Z,86.77
2019-05-30T08:13:08.625Z,85.58
2019-05-30T08:19:38.349Z,84.80
2019-05-30T08:25:55.913Z,84.49
2019-05-30T08:32:12.844Z,84.38
2019-05-30T08:42:17.508Z,82.94
2019-05-30T08:48:36.140Z,80.68
2019-05-30T08:55:06.678Z,81.11
2019-05-30T09:01:25.825Z,80.53
2019-05-30T09:07:43.026Z,78.64
2019-05-30T09:14:01.966Z,77.71
2019-05-30T09:20:31.674Z,76.92
2019-05-30T09:26:50.400Z,76.03
2019-05-30T09:33:07.850Z,74.92
2019-05-30T09:43:11.319Z,75.21
2019-05-30T09:49:28.240Z,74.23
2019-05-30T09:55:58.985Z,68.52
2019-05-30T10:02:16.758Z,69.82
2019-05-30T10:08:34.666Z,69.26
2019-05-30T10:14:16.616Z,68.66
2019-05-30T10:20:47.760Z,68.58
2019-05-30T10:27:05.738Z,69.29
2019-05-30T10:33:23.680Z,69.59
2019-05-30T10:43:28.903Z,68.61
2019-05-30T10:49:48.045Z,68.09
2019-05-30T10:56:18.227Z,68.25
2019-05-30T11:02:37.158Z,66.71
2019-05-30T11:08:57.983Z,67.35
2019-05-30T11:14:41.644Z,66.53
2019-05-30T11:21:11.365Z,66.84
2019-05-30T11:27:28.782Z,66.31
2019-05-30T11:33:45.739Z,66.61
2019-05-30T11:39:27.961Z,67.61
2019-05-30T11:45:45.600Z,67.16
2019-05-30T11:52:15.098Z,67.87
2019-05-30T11:58:32.419Z,66.56
2019-05-30T12:04:50.754Z,66.70
2019-05-30T12:11:08.040Z,67.88
2019-05-30T12:17:37.837Z,68.30
2019-05-30T12:23:56.019Z,69.09
2019-05-30T12:30:16.139Z,69.79
2019-05-30T12:36:33.399Z,70.53
2019-05-30T12:46:03.958Z,70.53
2019-05-30T12:52:33.618Z,70.95
2019-05-30T12:58:51.137Z,71.08
2019-05-30T13:05:10.533Z,71.84
2019-05-30T13:11:27.814Z,72.27
2019-05-30T13:17:58.862Z,72.49
2019-05-30T13:24:16.316Z,72.62
2019-05-30T13:30:35.087Z,73.06
2019-05-30T13:36:52.265Z,73.42
2019-05-30T13:47:09.316Z,73.02
2019-05-30T13:53:38.875Z,73.38
2019-05-30T13:59:56.107Z,73.73
2019-05-30T14:06:14.929Z,74.50
2019-05-30T14:12:32.059Z,74.62
2019-05-30T14:19:02.844Z,75.20
2019-05-30T14:25:21.104Z,75.41
2019-05-30T14:31:38.755Z,75.27
2019-05-30T14:37:59.331Z,74.85
2019-05-30T14:48:04.485Z,74.79
2019-05-30T14:54:21.590Z,74.90
2019-05-30T15:00:51.332Z,75.83
2019-05-30T15:07:09.309Z,75.08
2019-05-30T15:13:26.181Z,75.50
2019-05-30T15:19:43.054Z,76.46
2019-05-30T15:26:12.621Z,76.53
2019-05-30T15:32:30.071Z,76.64
2019-05-30T15:38:25.195Z,74.12
2019-05-30T15:48:29.209Z,71.58
2019-05-30T15:54:47.180Z,71.01
2019-05-30T16:01:04.336Z,71.88
2019-05-30T16:07:22.103Z,71.19
2019-05-30T16:13:40.005Z,71.41
2019-05-30T16:20:13.849Z,71.71
2019-05-30T16:26:31.858Z,72.02
2019-05-30T16:32:48.726Z,72.00
2019-05-30T16:39:18.610Z,71.99
2019-05-30T16:49:22.950Z,71.78
2019-05-30T16:55:40.465Z,73.32
2019-05-30T17:01:58.757Z,73.94
2019-05-30T17:08:16.538Z,73.88
2019-05-30T17:14:46.210Z,72.98
2019-05-30T17:21:03.492Z,72.36
2019-05-30T17:27:20.511Z,72.15
2019-05-30T17:33:39.429Z,73.10
2019-05-30T17:40:10.909Z,73.71
2019-05-30T17:50:15.138Z,74.78
2019-05-30T17:56:33.116Z,76.07
2019-05-30T18:02:50.327Z,77.45
2019-05-30T18:09:08.965Z,77.00
2019-05-30T18:15:39.471Z,77.59
2019-05-30T18:21:56.690Z,78.85
2019-05-30T18:28:13.426Z,78.79
2019-05-30T18:34:32.622Z,78.90
2019-05-30T18:41:11.547Z,79.36
2019-05-30T18:51:08.033Z,80.35
2019-05-30T18:57:25.168Z,80.44
2019-05-30T19:03:07.205Z,81.53
2019-05-30T19:09:24.872Z,82.48
2019-05-30T19:15:54.633Z,83.21
2019-05-30T19:22:11.861Z,84.24
2019-05-30T19:28:18.702Z,85.13
2019-05-30T19:34:02.562Z,85.41
2019-05-30T19:40:19.986Z,86.34
2019-05-30T19:46:49.315Z,87.37
2019-05-30T19:53:06.599Z,88.38
2019-05-30T19:59:23.659Z,88.71
2019-05-30T20:05:41.523Z,89.17
2019-05-30T20:12:11.089Z,89.40
2019-05-30T20:18:28.123Z,89.73
2019-05-30T20:24:45.891Z,89.80
2019-05-30T20:31:02.952Z,90.10
2019-05-30T20:36:58.693Z,90.67
2019-05-30T20:43:16.017Z,91.59
2019-05-30T20:53:10.300Z,91.90
2019-05-30T20:59:27.902Z,92.14
2019-05-30T21:05:46.809Z,92.88
2019-05-30T21:12:36.132Z,93.11
2019-05-30T21:18:38.024Z,93.73
2019-05-30T21:24:54.985Z,94.08
2019-05-30T21:31:12.338Z,93.92
2019-05-30T21:37:05.995Z,94.29
2019-05-30T21:43:24.526Z,94.43
2019-05-30T21:53:29.034Z,95.35
2019-05-30T21:59:46.734Z,96.17
2019-05-30T22:06:03.581Z,95.72
2019-05-30T22:12:20.819Z,96.38
2019-05-30T22:18:50.428Z,96.58
2019-05-30T22:25:08.387Z,98.08
2019-05-30T22:31:25.765Z,97.34
2019-05-30T22:37:19.741Z,98.65
2019-05-30T22:43:48.948Z,97.95
2019-05-30T22:53:53.307Z,97.49
2019-05-30T23:00:11.136Z,97.52
2019-05-30T23:06:28.358Z,97.68
2019-05-30T23:12:45.857Z,98.06
2019-05-30T23:19:15.506Z,98.45
2019-05-30T23:25:32.468Z,99.54
2019-05-30T23:31:49.890Z,100.00
2019-05-30T23:37:31.571Z,99.65
2019-05-30T23:44:09.645Z,100.00
2019-05-30T23:50:21.618Z,100.00
2019-05-30T23:56:27.834Z,100.00
